createdAt,value
2019-02-27T00:00:05.134Z,4.56
2019-02-27T00:01:05.514Z,4.56
2019-02-27T00:02:05.632Z,4.56
2019-02-27T00:03:05.423Z,4.50
2019-02-27T00:04:05.460Z,4.50
2019-02-27T00:05:05.921Z,4.44
2019-02-27T00:06:05.047Z,4.44
2019-02-27T00:07:05.723Z,4.44
2019-02-27T00:08:05.960Z,4.44
2019-02-27T00:09:05.064Z,4.44
2019-02-27T00:10:06.089Z,4.44
2019-02-27T00:11:05.304Z,4.44
2019-02-27T00:12:05.397Z,4.44
2019-02-27T00:13:05.375Z,4.44
2019-02-27T00:14:05.533Z,4.44
2019-02-27T00:15:05.983Z,4.44
2019-02-27T00:16:05.619Z,4.44
2019-02-27T00:17:05.857Z,4.38
2019-02-27T00:18:05.771Z,4.38
2019-02-27T00:19:05.114Z,4.38
2019-02-27T00:20:05.625Z,4.38
2019-02-27T00:21:09.994Z,4.38
2019-02-27T00:22:05.469Z,4.38
2019-02-27T00:23:05.612Z,4.31
2019-02-27T00:24:05.797Z,4.31
2019-02-27T00:25:05.673Z,4.31
2019-02-27T00:26:08.722Z,4.31
2019-02-27T00:27:05.043Z,4.31
2019-02-27T00:28:05.634Z,4.25
2019-02-27T00:29:05.769Z,4.25
2019-02-27T00:30:05.918Z,4.19
2019-02-27T00:31:06.025Z,4.19
2019-02-27T00:32:05.057Z,4.19
2019-02-27T00:33:05.848Z,4.19
2019-02-27T00:34:05.227Z,4.19
2019-02-27T00:35:07.160Z,4.12
2019-02-27T00:36:05.871Z,4.12
2019-02-27T00:37:05.939Z,4.12
2019-02-27T00:38:05.143Z,4.12
2019-02-27T00:39:05.294Z,4.12
2019-02-27T00:40:06.124Z,4.12
2019-02-27T00:41:05.769Z,4.12
2019-02-27T00:42:05.133Z,4.06
2019-02-27T00:43:05.375Z,4.06
2019-02-27T00:44:05.753Z,4.06
2019-02-27T00:45:07.002Z,4.06
2019-02-27T00:46:05.054Z,4.06
2019-02-27T00:47:05.208Z,4.06
2019-02-27T00:48:06.029Z,4.00
2019-02-27T00:49:05.110Z,4.00
2019-02-27T00:50:06.490Z,4.00
2019-02-27T00:51:05.292Z,4.00
2019-02-27T00:52:05.400Z,4.00
2019-02-27T00:53:05.515Z,4.00
2019-02-27T00:54:05.880Z,4.00
2019-02-27T00:55:05.838Z,3.94
2019-02-27T00:56:06.125Z,3.94
2019-02-27T00:57:06.009Z,3.94
2019-02-27T00:58:05.200Z,4.06
2019-02-27T00:59:05.605Z,4.19
2019-02-27T01:00:06.474Z,4.19
2019-02-27T01:01:05.594Z,4.19
2019-02-27T01:02:05.461Z,4.19
2019-02-27T01:03:05.701Z,4.19
2019-02-27T01:04:05.961Z,4.19
2019-02-27T01:05:06.151Z,4.19
2019-02-27T01:06:05.693Z,4.19
2019-02-27T01:07:05.195Z,4.12
2019-02-27T01:08:05.379Z,4.12
2019-02-27T01:09:06.346Z,4.12
2019-02-27T01:10:06.014Z,4.12
2019-02-27T01:11:05.119Z,4.12
2019-02-27T01:12:05.869Z,4.06
2019-02-27T01:13:05.913Z,4.06
2019-02-27T01:14:05.475Z,4.06
2019-02-27T01:15:07.888Z,4.06
2019-02-27T01:16:05.363Z,4.00
2019-02-27T01:17:05.597Z,4.00
2019-02-27T01:18:06.431Z,4.06
2019-02-27T01:19:06.012Z,4.00
2019-02-27T01:20:05.141Z,4.00
2019-02-27T01:21:05.135Z,4.00
2019-02-27T01:22:05.302Z,4.00
2019-02-27T01:23:05.748Z,4.00
2019-02-27T01:24:05.928Z,4.00
2019-02-27T01:25:05.106Z,3.94
2019-02-27T01:26:05.288Z,4.00
2019-02-27T01:27:05.486Z,4.00
2019-02-27T01:28:05.035Z,3.94
2019-02-27T01:29:05.446Z,3.88
2019-02-27T01:30:05.703Z,3.88
2019-02-27T01:31:05.207Z,3.81
2019-02-27T01:32:05.303Z,3.81
2019-02-27T01:33:05.915Z,3.81
2019-02-27T01:34:05.378Z,3.81
2019-02-27T01:35:05.534Z,3.81
2019-02-27T01:36:05.607Z,3.75
2019-02-27T01:37:06.080Z,3.81
2019-02-27T01:38:05.877Z,3.75
2019-02-27T01:39:05.376Z,3.75
2019-02-27T01:40:06.517Z,3.81
2019-02-27T01:41:05.777Z,3.81
2019-02-27T01:42:06.041Z,3.81
2019-02-27T01:43:06.221Z,3.75
2019-02-27T01:44:05.936Z,3.75
2019-02-27T01:45:05.049Z,3.69
2019-02-27T01:46:05.220Z,3.69
2019-02-27T01:47:05.381Z,3.69
2019-02-27T01:48:08.866Z,3.69
2019-02-27T01:49:05.110Z,3.69
2019-02-27T01:50:05.131Z,3.69
2019-02-27T01:51:05.363Z,3.69
2019-02-27T01:52:05.372Z,3.69
2019-02-27T01:53:07.307Z,3.69
2019-02-27T01:54:05.534Z,3.62
2019-02-27T01:55:05.862Z,3.62
2019-02-27T01:56:05.960Z,3.69
2019-02-27T01:57:05.122Z,3.62
2019-02-27T01:58:09.113Z,3.62
2019-02-27T01:59:05.537Z,3.62
2019-02-27T02:00:06.323Z,3.62
2019-02-27T02:01:05.940Z,3.69
2019-02-27T02:02:05.160Z,3.69
2019-02-27T02:03:05.378Z,3.69
2019-02-27T02:04:05.393Z,3.69
2019-02-27T02:05:05.550Z,3.69
2019-02-27T02:06:05.619Z,3.62
2019-02-27T02:07:06.463Z,3.62
2019-02-27T02:08:05.471Z,3.56
2019-02-27T02:09:05.617Z,3.56
2019-02-27T02:10:05.147Z,3.56
2019-02-27T02:11:05.615Z,3.56
2019-02-27T02:12:08.131Z,3.56
2019-02-27T02:13:05.116Z,3.56
2019-02-27T02:14:05.307Z,3.56
2019-02-27T02:15:05.548Z,3.56
2019-02-27T02:16:05.462Z,3.56
2019-02-27T02:17:07.418Z,3.56
2019-02-27T02:18:05.215Z,3.56
2019-02-27T02:19:05.858Z,3.56
2019-02-27T02:20:06.049Z,3.56
2019-02-27T02:21:05.045Z,3.69
2019-02-27T02:22:06.058Z,3.69
2019-02-27T02:23:05.299Z,3.69
2019-02-27T02:24:05.485Z,3.69
2019-02-27T02:25:05.447Z,3.62
2019-02-27T02:26:05.522Z,3.56
2019-02-27T02:27:08.123Z,3.56
2019-02-27T02:28:05.138Z,3.56
2019-02-27T02:29:05.447Z,3.50
2019-02-27T02:30:05.687Z,3.50
2019-02-27T02:31:06.520Z,3.50
2019-02-27T02:32:05.119Z,3.50
2019-02-27T02:33:05.447Z,3.44
2019-02-27T02:34:06.296Z,3.44
2019-02-27T02:35:05.759Z,3.50
2019-02-27T02:36:05.397Z,3.44
2019-02-27T02:37:05.438Z,3.44
2019-02-27T02:38:11.782Z,3.44
2019-02-27T02:39:05.060Z,3.44
2019-02-27T02:40:05.474Z,3.38
2019-02-27T02:41:08.238Z,3.38
2019-02-27T02:42:05.605Z,3.38
2019-02-27T02:43:06.023Z,3.56
2019-02-27T02:44:05.056Z,3.88
2019-02-27T02:45:05.527Z,3.94
2019-02-27T02:46:08.584Z,3.88
2019-02-27T02:47:06.024Z,3.81
2019-02-27T02:48:05.156Z,3.69
2019-02-27T02:49:07.795Z,3.62
2019-02-27T02:50:05.922Z,3.62
2019-02-27T02:51:06.022Z,3.62
2019-02-27T02:52:05.902Z,3.62
2019-02-27T02:53:05.461Z,3.56
2019-02-27T02:54:05.627Z,3.56
2019-02-27T02:55:11.857Z,3.50
2019-02-27T02:56:05.765Z,3.44
2019-02-27T02:57:06.114Z,3.44
2019-02-27T02:58:07.733Z,3.44
2019-02-27T02:59:05.325Z,3.44
2019-02-27T03:00:05.456Z,3.44
2019-02-27T03:01:05.802Z,3.44
2019-02-27T03:02:05.690Z,3.38
2019-02-27T03:03:05.875Z,3.38
2019-02-27T03:04:05.915Z,3.38
2019-02-27T03:05:06.020Z,3.31
2019-02-27T03:06:05.614Z,3.31
2019-02-27T03:07:07.134Z,3.31
2019-02-27T03:08:05.359Z,3.31
2019-02-27T03:09:05.712Z,3.31
2019-02-27T03:10:07.344Z,3.31
2019-02-27T03:11:05.784Z,3.31
2019-02-27T03:12:06.087Z,3.31
2019-02-27T03:13:07.020Z,3.31
2019-02-27T03:14:05.793Z,3.31
2019-02-27T03:15:05.862Z,3.31
2019-02-27T03:16:05.879Z,3.31
2019-02-27T03:17:05.623Z,3.31
2019-02-27T03:18:05.788Z,3.31
2019-02-27T03:19:06.486Z,3.31
2019-02-27T03:20:05.613Z,3.25
2019-02-27T03:21:05.869Z,3.31
2019-02-27T03:22:05.948Z,3.31
2019-02-27T03:23:05.307Z,3.31
2019-02-27T03:24:05.291Z,3.31
2019-02-27T03:25:05.869Z,3.31
2019-02-27T03:26:05.358Z,3.31
2019-02-27T03:27:06.024Z,3.31
2019-02-27T03:28:05.859Z,3.31
2019-02-27T03:29:05.480Z,3.31
2019-02-27T03:30:05.220Z,3.25
2019-02-27T03:31:05.398Z,3.19
2019-02-27T03:32:05.569Z,3.19
2019-02-27T03:33:05.617Z,3.19
2019-02-27T03:34:07.756Z,3.19
2019-02-27T03:35:05.182Z,3.19
2019-02-27T03:36:05.388Z,3.12
2019-02-27T03:37:05.468Z,3.12
2019-02-27T03:38:05.620Z,3.12
2019-02-27T03:39:05.833Z,3.12
2019-02-27T03:40:10.590Z,3.12
2019-02-27T03:41:05.113Z,3.12
2019-02-27T03:42:05.380Z,3.12
2019-02-27T03:43:09.985Z,3.12
2019-02-27T03:44:05.698Z,3.12
2019-02-27T03:45:05.316Z,3.12
2019-02-27T03:46:06.168Z,3.12
2019-02-27T03:47:05.945Z,3.12
2019-02-27T03:48:05.773Z,3.06
2019-02-27T03:49:05.877Z,3.06
2019-02-27T03:50:06.010Z,3.00
2019-02-27T03:51:05.290Z,3.06
2019-02-27T03:52:05.601Z,3.06
2019-02-27T03:53:10.464Z,3.00
2019-02-27T03:54:06.003Z,3.06
2019-02-27T03:55:05.539Z,3.06
2019-02-27T03:56:09.699Z,3.00
2019-02-27T03:57:05.383Z,3.00
2019-02-27T03:58:05.449Z,3.00
2019-02-27T03:59:06.000Z,3.00
2019-02-27T04:00:05.863Z,3.00
2019-02-27T04:01:05.064Z,3.00
2019-02-27T04:02:06.076Z,2.94
2019-02-27T04:03:05.374Z,3.00
2019-02-27T04:04:05.528Z,3.00
2019-02-27T04:05:07.348Z,2.94
2019-02-27T04:06:05.865Z,2.94
2019-02-27T04:07:05.912Z,2.94
2019-02-27T04:08:08.243Z,3.00
2019-02-27T04:09:05.291Z,2.94
2019-02-27T04:10:05.453Z,2.94
2019-02-27T04:11:06.695Z,2.88
2019-02-27T04:12:05.213Z,2.88
2019-02-27T04:13:05.933Z,2.88
2019-02-27T04:14:05.647Z,2.94
2019-02-27T04:15:05.143Z,2.94
2019-02-27T04:16:05.305Z,2.94
2019-02-27T04:17:07.279Z,2.94
2019-02-27T04:18:05.239Z,2.94
2019-02-27T04:19:05.255Z,2.94
2019-02-27T04:20:05.369Z,2.94
2019-02-27T04:21:05.765Z,2.94
2019-02-27T04:22:05.236Z,2.94
2019-02-27T04:23:11.146Z,2.94
2019-02-27T04:24:05.878Z,2.94
2019-02-27T04:25:05.215Z,2.94
2019-02-27T04:26:06.633Z,2.94
2019-02-27T04:27:05.617Z,2.94
2019-02-27T04:28:05.623Z,2.94
2019-02-27T04:29:08.378Z,2.94
2019-02-27T04:30:05.311Z,2.94
2019-02-27T04:31:05.788Z,2.94
2019-02-27T04:32:06.117Z,2.94
2019-02-27T04:33:05.301Z,2.94
2019-02-27T04:34:05.306Z,2.94
2019-02-27T04:35:06.300Z,2.94
2019-02-27T04:36:05.466Z,2.88
2019-02-27T04:37:05.553Z,2.88
2019-02-27T04:38:06.115Z,2.81
2019-02-27T04:39:05.210Z,2.81
2019-02-27T04:40:05.692Z,2.81
2019-02-27T04:41:05.951Z,2.81
2019-02-27T04:42:05.400Z,2.81
2019-02-27T04:43:05.617Z,2.81
2019-02-27T04:44:06.228Z,2.81
2019-02-27T04:45:05.765Z,2.75
2019-02-27T04:46:05.956Z,2.75
2019-02-27T04:47:06.099Z,2.75
2019-02-27T04:48:05.241Z,2.75
2019-02-27T04:49:05.254Z,2.75
2019-02-27T04:50:05.958Z,2.69
2019-02-27T04:51:06.031Z,2.69
2019-02-27T04:52:05.057Z,2.69
2019-02-27T04:53:05.284Z,2.69
2019-02-27T04:54:07.170Z,2.62
2019-02-27T04:55:05.046Z,2.62
2019-02-27T04:56:05.220Z,2.62
2019-02-27T04:57:05.693Z,2.62
2019-02-27T04:58:08.496Z,2.62
2019-02-27T04:59:05.924Z,2.62
2019-02-27T05:00:05.937Z,2.56
2019-02-27T05:01:05.526Z,2.56
2019-02-27T05:02:05.216Z,2.56
2019-02-27T05:03:06.098Z,2.56
2019-02-27T05:04:05.139Z,2.56
2019-02-27T05:05:06.094Z,2.62
2019-02-27T05:06:05.386Z,2.56
2019-02-27T05:07:05.519Z,2.62
2019-02-27T05:08:05.703Z,2.56
2019-02-27T05:09:05.773Z,2.56
2019-02-27T05:10:07.238Z,2.56
2019-02-27T05:11:05.132Z,2.56
2019-02-27T05:12:05.956Z,2.56
2019-02-27T05:13:06.021Z,2.56
2019-02-27T05:14:05.474Z,2.56
2019-02-27T05:15:05.622Z,2.56
2019-02-27T05:16:05.885Z,2.56
2019-02-27T05:17:05.848Z,2.56
2019-02-27T05:18:05.545Z,2.56
2019-02-27T05:19:05.622Z,2.50
2019-02-27T05:20:05.857Z,2.50
2019-02-27T05:21:05.198Z,2.50
2019-02-27T05:22:05.938Z,2.50
2019-02-27T05:23:05.511Z,2.50
2019-02-27T05:24:07.612Z,2.50
2019-02-27T05:25:06.354Z,2.44
2019-02-27T05:26:05.150Z,2.50
2019-02-27T05:27:05.614Z,2.44
2019-02-27T05:28:05.219Z,2.44
2019-02-27T05:29:05.651Z,2.44
2019-02-27T05:30:05.847Z,2.50
2019-02-27T05:31:05.212Z,2.50
2019-02-27T05:32:05.858Z,2.50
2019-02-27T05:33:05.458Z,2.50
2019-02-27T05:34:05.781Z,2.56
2019-02-27T05:35:06.033Z,2.69
2019-02-27T05:36:05.383Z,2.75
2019-02-27T05:37:05.982Z,2.88
2019-02-27T05:38:05.955Z,2.94
2019-02-27T05:39:06.517Z,3.06
2019-02-27T05:40:05.871Z,3.12
2019-02-27T05:41:05.927Z,3.06
2019-02-27T05:42:06.279Z,3.00
2019-02-27T05:43:05.474Z,3.00
2019-02-27T05:44:05.642Z,3.06
2019-02-27T05:45:05.677Z,3.00
2019-02-27T05:46:05.773Z,3.00
2019-02-27T05:47:05.139Z,2.88
2019-02-27T05:48:05.128Z,2.88
2019-02-27T05:49:05.360Z,2.75
2019-02-27T05:50:05.535Z,2.62
2019-02-27T05:51:07.500Z,2.44
2019-02-27T05:52:05.760Z,2.31
2019-02-27T05:53:05.132Z,2.12
2019-02-27T05:54:05.866Z,2.00
2019-02-27T05:55:06.368Z,1.88
2019-02-27T05:56:05.562Z,1.75
2019-02-27T05:57:05.625Z,1.69
2019-02-27T05:58:05.855Z,1.56
2019-02-27T05:59:05.274Z,1.50
2019-02-27T06:00:07.077Z,1.38
2019-02-27T06:01:05.817Z,1.31
2019-02-27T06:02:05.562Z,1.25
2019-02-27T06:03:05.536Z,1.25
2019-02-27T06:04:06.595Z,1.19
2019-02-27T06:05:05.116Z,1.12
2019-02-27T06:06:06.733Z,1.12
2019-02-27T06:07:06.093Z,1.06
2019-02-27T06:08:05.241Z,1.00
2019-02-27T06:09:05.282Z,0.94
2019-02-27T06:10:05.328Z,0.94
2019-02-27T06:11:05.911Z,0.88
2019-02-27T06:12:06.825Z,0.88
2019-02-27T06:13:06.013Z,0.88
2019-02-27T06:14:05.707Z,0.88
2019-02-27T06:15:05.117Z,0.81
2019-02-27T06:16:08.368Z,0.81
2019-02-27T06:17:05.617Z,0.75
2019-02-27T06:18:05.933Z,0.75
2019-02-27T06:19:05.210Z,0.75
2019-02-27T06:20:07.791Z,0.75
2019-02-27T06:21:06.010Z,0.69
2019-02-27T06:22:06.110Z,0.69
2019-02-27T06:23:07.239Z,0.62
2019-02-27T06:24:05.845Z,0.62
2019-02-27T06:25:05.073Z,0.62
2019-02-27T06:26:05.464Z,0.62
2019-02-27T06:27:06.255Z,0.62
2019-02-27T06:28:05.299Z,0.62
2019-02-27T06:29:05.437Z,0.62
2019-02-27T06:30:06.019Z,0.56
2019-02-27T06:31:05.501Z,0.62
2019-02-27T06:32:05.692Z,0.62
2019-02-27T06:33:06.002Z,0.62
2019-02-27T06:34:05.539Z,0.56
2019-02-27T06:35:05.632Z,0.56
2019-02-27T06:36:07.749Z,0.56
2019-02-27T06:37:05.840Z,0.56
2019-02-27T06:38:05.360Z,0.56
2019-02-27T06:39:05.850Z,0.62
2019-02-27T06:40:07.354Z,0.62
2019-02-27T06:41:06.357Z,0.62
2019-02-27T06:42:05.658Z,0.62
2019-02-27T06:43:06.165Z,0.69
2019-02-27T06:44:05.782Z,0.69
2019-02-27T06:45:05.211Z,0.75
2019-02-27T06:46:05.731Z,0.75
2019-02-27T06:47:07.108Z,0.88
2019-02-27T06:48:09.314Z,0.94
2019-02-27T06:49:05.610Z,1.06
2019-02-27T06:50:05.695Z,1.25
2019-02-27T06:51:06.025Z,1.62
2019-02-27T06:52:08.946Z,1.69
2019-02-27T06:53:05.132Z,1.81
2019-02-27T06:54:05.222Z,1.88
2019-02-27T06:55:05.462Z,2.00
2019-02-27T06:56:05.713Z,2.06
2019-02-27T06:57:07.652Z,2.19
2019-02-27T06:58:05.878Z,2.31
2019-02-27T06:59:05.380Z,2.44
2019-02-27T07:00:05.440Z,2.56
2019-02-27T07:01:09.059Z,2.69
2019-02-27T07:02:05.543Z,2.88
2019-02-27T07:03:06.027Z,3.25
2019-02-27T07:04:05.702Z,3.44
2019-02-27T07:05:05.136Z,3.81
2019-02-27T07:06:05.205Z,3.88
2019-02-27T07:07:05.700Z,4.00
2019-02-27T07:08:05.712Z,4.12
2019-02-27T07:09:05.298Z,4.19
2019-02-27T07:10:05.522Z,4.31
2019-02-27T07:11:10.509Z,4.44
2019-02-27T07:12:07.074Z,4.50
2019-02-27T07:13:05.770Z,4.62
2019-02-27T07:14:05.329Z,4.75
2019-02-27T07:15:05.289Z,4.88
2019-02-27T07:16:05.923Z,5.00
2019-02-27T07:17:06.016Z,5.12
2019-02-27T07:18:06.053Z,5.25
2019-02-27T07:19:05.209Z,5.38
2019-02-27T07:20:05.545Z,5.50
2019-02-27T07:21:05.292Z,5.62
2019-02-27T07:22:06.216Z,5.75
2019-02-27T07:23:05.679Z,5.88
2019-02-27T07:24:06.019Z,6.06
2019-02-27T07:25:06.543Z,6.25
2019-02-27T07:26:05.775Z,6.38
2019-02-27T07:27:06.019Z,6.50
2019-02-27T07:28:08.111Z,6.62
2019-02-27T07:29:05.594Z,6.75
2019-02-27T07:30:07.385Z,6.88
2019-02-27T07:31:05.539Z,7.00
2019-02-27T07:32:05.210Z,7.12
2019-02-27T07:33:06.665Z,7.25
2019-02-27T07:34:05.609Z,7.38
2019-02-27T07:35:05.860Z,7.50
2019-02-27T07:36:05.064Z,7.62
2019-02-27T07:37:05.224Z,7.75
2019-02-27T07:38:05.543Z,7.75
2019-02-27T07:39:05.200Z,8.06
2019-02-27T07:40:08.350Z,8.25
2019-02-27T07:41:05.625Z,8.38
2019-02-27T07:42:05.634Z,8.44
2019-02-27T07:43:06.399Z,8.56
2019-02-27T07:44:05.794Z,8.62
2019-02-27T07:45:05.130Z,8.75
2019-02-27T07:46:05.476Z,8.81
2019-02-27T07:47:05.442Z,8.94
2019-02-27T07:48:05.065Z,9.00
2019-02-27T07:49:05.453Z,9.12
2019-02-27T07:50:07.205Z,9.19
2019-02-27T07:51:05.152Z,9.31
2019-02-27T07:52:05.372Z,9.38
2019-02-27T07:53:05.613Z,9.44
2019-02-27T07:54:05.235Z,9.50
2019-02-27T07:55:16.191Z,9.56
2019-02-27T07:56:05.808Z,9.62
2019-02-27T07:57:05.787Z,9.75
2019-02-27T07:58:05.955Z,9.81
2019-02-27T07:59:05.214Z,9.88
2019-02-27T08:00:05.566Z,9.94
2019-02-27T08:01:05.242Z,10.00
2019-02-27T08:02:05.545Z,10.00
2019-02-27T08:03:09.025Z,10.06
2019-02-27T08:04:05.150Z,10.12
2019-02-27T08:05:05.444Z,10.19
2019-02-27T08:06:06.026Z,10.19
2019-02-27T08:07:05.060Z,10.25
2019-02-27T08:08:05.218Z,10.25
2019-02-27T08:09:05.213Z,10.31
2019-02-27T08:10:05.699Z,10.31
2019-02-27T08:11:05.278Z,10.31
2019-02-27T08:12:05.298Z,10.38
2019-02-27T08:13:05.041Z,10.38
2019-02-27T08:14:05.218Z,10.44
2019-02-27T08:15:05.453Z,10.44
2019-02-27T08:16:05.531Z,10.50
2019-02-27T08:17:16.921Z,10.50
2019-02-27T08:18:05.231Z,10.56
2019-02-27T08:19:05.122Z,10.56
2019-02-27T08:20:05.322Z,10.62
2019-02-27T08:21:05.369Z,10.62
2019-02-27T08:22:05.535Z,10.62
2019-02-27T08:23:05.832Z,10.69
2019-02-27T08:24:07.323Z,10.69
2019-02-27T08:25:06.088Z,10.69
2019-02-27T08:26:05.700Z,10.69
2019-02-27T08:27:07.075Z,10.75
2019-02-27T08:28:05.543Z,10.75
2019-02-27T08:29:05.697Z,10.75
2019-02-27T08:30:06.113Z,10.75
2019-02-27T08:31:05.109Z,10.81
2019-02-27T08:32:05.790Z,10.75
2019-02-27T08:33:08.107Z,10.81
2019-02-27T08:34:05.304Z,10.94
2019-02-27T08:35:05.774Z,11.06
2019-02-27T08:36:05.941Z,11.00
2019-02-27T08:37:05.619Z,11.00
2019-02-27T08:38:05.698Z,11.19
2019-02-27T08:39:05.842Z,11.25
2019-02-27T08:40:05.944Z,11.19
2019-02-27T08:41:05.043Z,11.19
2019-02-27T08:42:05.687Z,11.12
2019-02-27T08:43:05.885Z,11.12
2019-02-27T08:44:06.006Z,11.06
2019-02-27T08:45:05.464Z,11.06
2019-02-27T08:46:05.690Z,11.00
2019-02-27T08:47:07.761Z,11.00
2019-02-27T08:48:05.226Z,10.94
2019-02-27T08:49:05.699Z,10.94
2019-02-27T08:50:05.873Z,10.88
2019-02-27T08:51:08.447Z,10.88
2019-02-27T08:52:05.131Z,10.88
2019-02-27T08:53:05.387Z,10.81
2019-02-27T08:54:05.458Z,10.81
2019-02-27T08:55:06.255Z,10.75
2019-02-27T08:56:05.876Z,10.81
2019-02-27T08:57:06.026Z,10.75
2019-02-27T08:58:07.192Z,10.94
2019-02-27T08:59:06.074Z,10.94
2019-02-27T09:00:05.600Z,10.88
2019-02-27T09:01:05.050Z,10.88
2019-02-27T09:02:05.291Z,10.81
2019-02-27T09:03:05.932Z,10.81
2019-02-27T09:04:06.209Z,10.81
2019-02-27T09:05:05.619Z,10.81
2019-02-27T09:06:05.867Z,10.75
2019-02-27T09:07:06.019Z,10.75
2019-02-27T09:08:07.245Z,10.75
2019-02-27T09:09:05.368Z,10.69
2019-02-27T09:10:05.442Z,10.69
2019-02-27T09:11:06.773Z,10.62
2019-02-27T09:12:05.374Z,10.62
2019-02-27T09:13:06.040Z,10.62
2019-02-27T09:14:05.517Z,10.56
2019-02-27T09:15:05.840Z,10.56
2019-02-27T09:16:06.113Z,10.56
2019-02-27T09:17:05.774Z,10.56
2019-02-27T09:18:06.915Z,10.50
2019-02-27T09:19:09.218Z,10.50
2019-02-27T09:20:05.631Z,10.50
2019-02-27T09:21:05.777Z,10.44
2019-02-27T09:22:05.146Z,10.44
2019-02-27T09:23:05.840Z,10.44
2019-02-27T09:24:05.540Z,10.44
2019-02-27T09:25:05.522Z,10.44
2019-02-27T09:26:05.297Z,10.38
2019-02-27T09:27:05.914Z,10.38
2019-02-27T09:28:08.740Z,10.38
2019-02-27T09:29:05.229Z,10.38
2019-02-27T09:30:05.533Z,10.38
2019-02-27T09:31:05.705Z,10.38
2019-02-27T09:32:05.695Z,10.31
2019-02-27T09:33:05.767Z,10.31
2019-02-27T09:34:05.297Z,10.31
2019-02-27T09:35:05.372Z,10.31
2019-02-27T09:36:07.934Z,10.31
2019-02-27T09:37:05.293Z,10.31
2019-02-27T09:38:08.500Z,10.31
2019-02-27T09:39:05.210Z,10.31
2019-02-27T09:40:05.856Z,10.31
2019-02-27T09:41:05.438Z,10.31
2019-02-27T09:42:05.531Z,10.31
2019-02-27T09:43:06.266Z,10.31
2019-02-27T09:44:05.934Z,10.31
2019-02-27T09:45:05.278Z,10.31
2019-02-27T09:46:05.533Z,10.31
2019-02-27T09:47:06.028Z,10.31
2019-02-27T09:48:05.125Z,10.31
2019-02-27T09:49:07.005Z,10.31
2019-02-27T09:50:05.948Z,10.31
2019-02-27T09:51:05.941Z,10.38
2019-02-27T09:52:05.225Z,10.38
2019-02-27T09:53:05.645Z,10.38
2019-02-27T09:54:05.853Z,10.38
2019-02-27T09:55:05.222Z,10.38
2019-02-27T09:56:05.373Z,10.38
2019-02-27T09:57:05.181Z,10.81
2019-02-27T09:58:09.847Z,10.94
2019-02-27T09:59:05.786Z,10.94
2019-02-27T10:00:05.224Z,10.94
2019-02-27T10:01:05.594Z,10.88
2019-02-27T10:02:06.200Z,10.88
2019-02-27T10:03:05.614Z,10.88
2019-02-27T10:04:05.789Z,10.88
2019-02-27T10:05:05.936Z,10.88
2019-02-27T10:06:08.702Z,10.88
2019-02-27T10:07:06.170Z,10.88
2019-02-27T10:08:07.469Z,10.88
2019-02-27T10:09:05.683Z,10.88
2019-02-27T10:10:09.963Z,10.88
2019-02-27T10:11:05.217Z,10.88
2019-02-27T10:12:05.392Z,10.88
2019-02-27T10:13:05.459Z,10.88
2019-02-27T10:14:05.055Z,10.94
2019-02-27T10:15:05.230Z,10.94
2019-02-27T10:16:05.463Z,10.94
2019-02-27T10:17:09.067Z,11.00
2019-02-27T10:18:06.009Z,11.00
2019-02-27T10:19:05.219Z,11.00
2019-02-27T10:20:05.541Z,11.06
2019-02-27T10:21:05.864Z,11.12
2019-02-27T10:22:05.132Z,11.12
2019-02-27T10:23:05.836Z,11.19
2019-02-27T10:24:05.457Z,11.19
2019-02-27T10:25:08.497Z,11.19
2019-02-27T10:26:05.778Z,11.25
2019-02-27T10:27:05.387Z,11.31
2019-02-27T10:28:05.468Z,11.31
2019-02-27T10:29:05.519Z,11.38
2019-02-27T10:30:11.249Z,11.38
2019-02-27T10:31:05.075Z,11.44
2019-02-27T10:32:05.304Z,11.44
2019-02-27T10:33:05.367Z,11.50
2019-02-27T10:34:05.440Z,11.50
2019-02-27T10:35:05.696Z,11.56
2019-02-27T10:36:06.066Z,11.56
2019-02-27T10:37:05.213Z,11.62
2019-02-27T10:38:05.615Z,11.69
2019-02-27T10:39:05.764Z,11.69
2019-02-27T10:40:05.774Z,11.75
2019-02-27T10:41:05.927Z,11.75
2019-02-27T10:42:04.981Z,11.81
2019-02-27T10:43:05.518Z,11.88
2019-02-27T10:44:05.687Z,11.94
2019-02-27T10:45:09.673Z,11.94
2019-02-27T10:46:05.049Z,12.00
2019-02-27T10:47:05.771Z,12.06
2019-02-27T10:48:05.873Z,12.06
2019-02-27T10:49:05.291Z,12.12
2019-02-27T10:50:05.474Z,12.19
2019-02-27T10:51:05.626Z,12.19
2019-02-27T10:52:05.392Z,12.25
2019-02-27T10:53:05.933Z,12.31
2019-02-27T10:54:05.523Z,12.31
2019-02-27T10:55:05.035Z,12.38
2019-02-27T10:56:05.298Z,12.38
2019-02-27T10:57:06.000Z,12.44
2019-02-27T10:58:06.962Z,12.50
2019-02-27T10:59:05.227Z,12.50
2019-02-27T11:00:05.444Z,12.56
2019-02-27T11:01:05.690Z,12.56
2019-02-27T11:02:05.814Z,12.62
2019-02-27T11:03:05.923Z,12.69
2019-02-27T11:04:05.537Z,12.69
2019-02-27T11:05:06.093Z,12.75
2019-02-27T11:06:05.448Z,12.81
2019-02-27T11:07:05.610Z,12.88
2019-02-27T11:08:06.119Z,12.88
2019-02-27T11:09:05.631Z,12.94
2019-02-27T11:10:05.959Z,13.00
2019-02-27T11:11:05.939Z,13.06
2019-02-27T11:12:06.018Z,13.06
2019-02-27T11:13:06.606Z,13.12
2019-02-27T11:14:05.461Z,13.12
2019-02-27T11:15:05.553Z,13.19
2019-02-27T11:16:05.616Z,13.25
2019-02-27T11:17:05.213Z,13.25
2019-02-27T11:18:05.893Z,13.31
2019-02-27T11:19:05.361Z,13.38
2019-02-27T11:20:05.455Z,13.38
2019-02-27T11:21:05.610Z,13.44
2019-02-27T11:22:05.951Z,13.44
2019-02-27T11:23:06.983Z,13.50
2019-02-27T11:24:05.152Z,13.56
2019-02-27T11:25:05.119Z,13.56
2019-02-27T11:26:05.940Z,13.62
2019-02-27T11:27:06.026Z,13.69
2019-02-27T11:28:05.415Z,13.69
2019-02-27T11:29:06.029Z,13.75
2019-02-27T11:30:05.376Z,13.75
2019-02-27T11:31:08.348Z,13.81
2019-02-27T11:32:05.967Z,13.88
2019-02-27T11:33:05.930Z,13.88
2019-02-27T11:34:07.772Z,13.94
2019-02-27T11:35:06.010Z,13.94
2019-02-27T11:36:05.622Z,14.00
2019-02-27T11:37:05.754Z,14.06
2019-02-27T11:38:05.466Z,14.06
2019-02-27T11:39:05.942Z,14.12
2019-02-27T11:40:07.788Z,14.12
2019-02-27T11:41:05.704Z,14.19
2019-02-27T11:42:05.857Z,14.25
2019-02-27T11:43:06.888Z,14.25
2019-02-27T11:44:06.037Z,14.31
2019-02-27T11:45:05.131Z,14.31
2019-02-27T11:46:05.204Z,14.38
2019-02-27T11:47:05.780Z,14.38
2019-02-27T11:48:06.828Z,14.44
2019-02-27T11:49:05.218Z,14.50
2019-02-27T11:50:05.376Z,14.50
2019-02-27T11:51:05.464Z,14.50
2019-02-27T11:52:05.556Z,14.56
2019-02-27T11:53:05.695Z,14.56
2019-02-27T11:54:08.222Z,14.62
2019-02-27T11:55:05.355Z,14.69
2019-02-27T11:56:05.451Z,14.69
2019-02-27T11:57:05.688Z,14.75
2019-02-27T11:58:05.709Z,14.75
2019-02-27T11:59:05.140Z,14.81
2019-02-27T12:00:05.385Z,14.81
2019-02-27T12:01:05.272Z,14.88
2019-02-27T12:02:05.938Z,15.00
2019-02-27T12:03:05.123Z,15.06
2019-02-27T12:04:05.303Z,15.06
2019-02-27T12:05:05.785Z,15.12
2019-02-27T12:06:07.605Z,15.12
2019-02-27T12:07:05.599Z,15.12
2019-02-27T12:08:05.856Z,15.19
2019-02-27T12:09:05.373Z,15.19
2019-02-27T12:10:06.558Z,15.19
2019-02-27T12:11:05.867Z,15.25
2019-02-27T12:12:05.292Z,15.25
2019-02-27T12:13:05.609Z,15.25
2019-02-27T12:14:06.493Z,15.31
2019-02-27T12:15:06.718Z,15.31
2019-02-27T12:16:05.683Z,15.31
2019-02-27T12:17:05.279Z,15.38
2019-02-27T12:18:05.408Z,15.38
2019-02-27T12:19:06.342Z,15.44
2019-02-27T12:20:06.010Z,15.44
2019-02-27T12:21:05.139Z,15.50
2019-02-27T12:22:05.193Z,15.50
2019-02-27T12:23:07.406Z,15.50
2019-02-27T12:24:05.459Z,15.56
2019-02-27T12:25:06.005Z,15.56
2019-02-27T12:26:05.219Z,15.62
2019-02-27T12:27:07.259Z,15.62
2019-02-27T12:28:05.215Z,15.69
2019-02-27T12:29:05.134Z,15.69
2019-02-27T12:30:05.528Z,15.69
2019-02-27T12:31:08.059Z,15.69
2019-02-27T12:32:06.188Z,15.75
2019-02-27T12:33:06.006Z,15.75
2019-02-27T12:34:05.689Z,15.75
2019-02-27T12:35:08.210Z,15.81
2019-02-27T12:36:05.616Z,15.88
2019-02-27T12:37:05.697Z,15.88
2019-02-27T12:38:08.020Z,15.88
2019-02-27T12:39:05.855Z,15.94
2019-02-27T12:40:05.460Z,15.94
2019-02-27T12:41:05.690Z,15.94
2019-02-27T12:42:06.958Z,16.25
2019-02-27T12:43:05.293Z,16.25
2019-02-27T12:44:06.000Z,16.31
2019-02-27T12:45:05.280Z,16.31
2019-02-27T12:46:05.694Z,16.31
2019-02-27T12:47:05.673Z,16.31
2019-02-27T12:48:05.592Z,16.31
2019-02-27T12:49:05.214Z,16.31
2019-02-27T12:50:05.293Z,16.31
2019-02-27T12:51:05.467Z,16.38
2019-02-27T12:52:06.011Z,16.38
2019-02-27T12:53:05.295Z,16.38
2019-02-27T12:54:05.592Z,16.38
2019-02-27T12:55:05.845Z,16.38
2019-02-27T12:56:07.787Z,16.38
2019-02-27T12:57:05.717Z,16.38
2019-02-27T12:58:05.865Z,16.38
2019-02-27T12:59:05.060Z,16.44
2019-02-27T13:00:05.716Z,16.44
2019-02-27T13:01:05.126Z,16.44
2019-02-27T13:02:08.213Z,16.44
2019-02-27T13:03:08.182Z,16.44
2019-02-27T13:04:05.823Z,16.44
2019-02-27T13:05:05.363Z,16.50
2019-02-27T13:06:05.061Z,16.50
2019-02-27T13:07:05.367Z,16.50
2019-02-27T13:08:05.464Z,16.50